createdAt,value
2019-05-10T00:02:32.759Z,96568.03
2019-05-10T00:05:23.713Z,96571.03
2019-05-10T00:08:16.714Z,96576.70
2019-05-10T00:10:53.294Z,96574.34
2019-05-10T00:13:30.458Z,96583.45
2019-05-10T00:16:06.157Z,96588.57
2019-05-10T00:18:41.431Z,96591.33
2019-05-10T00:21:16.582Z,96590.12
2019-05-10T00:23:51.934Z,96594.70
2019-05-10T00:26:26.981Z,96600.09
2019-05-10T00:29:02.436Z,96602.77
2019-05-10T00:31:37.661Z,96602.77
2019-05-10T00:34:12.354Z,96602.52
2019-05-10T00:36:47.338Z,96609.52
2019-05-10T00:39:22.549Z,96613.45
2019-05-10T00:41:58.008Z,96609.41
2019-05-10T00:44:32.673Z,96618.34
2019-05-10T00:47:07.275Z,96618.34
2019-05-10T00:49:41.921Z,96612.19
2019-05-10T00:52:16.425Z,96617.71
2019-05-10T00:54:51.260Z,96617.71
2019-05-10T00:57:25.888Z,96620.84
2019-05-10T01:00:00.422Z,96620.81
2019-05-10T01:02:35.267Z,96623.59
2019-05-10T01:05:10.289Z,96619.67
2019-05-10T01:07:44.947Z,96619.67
2019-05-10T01:10:19.953Z,96625.43
2019-05-10T01:12:54.436Z,96625.43
2019-05-10T01:15:29.288Z,96628.59
2019-05-10T01:18:05.283Z,96633.83
2019-05-10T01:20:39.945Z,96634.55
2019-05-10T01:23:14.415Z,96635.24
2019-05-10T01:25:49.275Z,96638.95
2019-05-10T01:28:23.922Z,96643.09
2019-05-10T01:30:58.398Z,96647.16
2019-05-10T01:33:33.282Z,96649.20
2019-05-10T01:36:08.265Z,96652.02
2019-05-10T01:38:43.271Z,96657.35
2019-05-10T01:41:17.933Z,96661.22
2019-05-10T01:43:52.658Z,96662.39
2019-05-10T01:46:27.007Z,96662.39
2019-05-10T01:49:01.279Z,96666.58
2019-05-10T01:51:35.948Z,96672.00
2019-05-10T01:54:10.786Z,96674.23
2019-05-10T01:56:44.065Z,96674.23
2019-05-10T01:59:18.277Z,96675.27
2019-05-10T02:01:52.752Z,96671.13
2019-05-10T02:04:43.953Z,96678.53
2019-05-10T02:07:19.151Z,96684.86
2019-05-10T02:09:53.948Z,96683.36
2019-05-10T02:12:28.111Z,96690.17
2019-05-10T02:15:02.667Z,96691.69
2019-05-10T02:17:38.279Z,96691.69
2019-05-10T02:20:13.261Z,96691.19
2019-05-10T02:22:47.784Z,96701.97
2019-05-10T02:25:21.032Z,96701.97
2019-05-10T02:27:55.291Z,96697.20
2019-05-10T02:30:30.278Z,96705.16
2019-05-10T02:33:05.119Z,96702.88
2019-05-10T02:35:39.941Z,96704.90
2019-05-10T02:38:14.704Z,96711.33
2019-05-10T02:40:49.288Z,96711.33
2019-05-10T02:43:24.252Z,96712.84
2019-05-10T02:45:59.715Z,96724.32
2019-05-10T02:48:33.111Z,96717.36
2019-05-10T02:51:07.782Z,96726.08
2019-05-10T02:53:40.859Z,96726.08
2019-05-10T02:56:29.898Z,96723.41
2019-05-10T02:58:55.723Z,96719.25
2019-05-10T03:01:31.480Z,96727.69
2019-05-10T03:04:06.282Z,96732.73
2019-05-10T03:06:43.565Z,96740.81
2019-05-10T03:09:18.286Z,96740.81
2019-05-10T03:11:53.296Z,96748.89
2019-05-10T03:14:29.460Z,96746.34
2019-05-10T03:17:06.283Z,96748.61
2019-05-10T03:19:41.352Z,96751.66
2019-05-10T03:22:17.278Z,96756.73
2019-05-10T03:24:51.954Z,96753.06
2019-05-10T03:27:26.805Z,96764.66
2019-05-10T03:29:59.861Z,96766.06
2019-05-10T03:32:34.287Z,96766.06
2019-05-10T03:35:09.718Z,96771.97
2019-05-10T03:37:43.053Z,96776.77
2019-05-10T03:40:17.704Z,96781.95
2019-05-10T03:42:52.117Z,96786.59
2019-05-10T03:45:28.283Z,96789.13
2019-05-10T03:48:03.107Z,96790.40
2019-05-10T03:50:37.949Z,96791.78
2019-05-10T03:53:12.783Z,96798.23
2019-05-10T03:55:47.277Z,96798.23
2019-05-10T03:58:21.747Z,96804.64
2019-05-10T04:00:54.858Z,96803.38
2019-05-10T04:03:29.432Z,96807.92
2019-05-10T04:06:04.273Z,96807.92
2019-05-10T04:08:38.876Z,96805.66
2019-05-10T04:11:13.421Z,96805.66
2019-05-10T04:13:48.284Z,96805.78
2019-05-10T04:16:23.287Z,96811.83
2019-05-10T04:18:57.942Z,96812.70
2019-05-10T04:21:32.732Z,96815.98
2019-05-10T04:24:07.940Z,96822.56
2019-05-10T04:27:35.686Z,96817.37
2019-05-10T04:30:11.073Z,96817.77
2019-05-10T04:32:45.746Z,96818.50
2019-05-10T04:35:18.960Z,96827.22
2019-05-10T04:37:53.272Z,96830.50
2019-05-10T04:40:27.714Z,96827.59
2019-05-10T04:43:03.265Z,96833.77
2019-05-10T04:45:38.423Z,96847.51
2019-05-10T04:48:13.614Z,96841.09
2019-05-10T04:50:49.246Z,96844.23
2019-05-10T04:53:24.298Z,96846.88
2019-05-10T04:55:59.499Z,96847.77
2019-05-10T04:58:34.962Z,96850.40
2019-05-10T05:01:10.290Z,96857.85
2019-05-10T05:03:45.269Z,96857.85
2019-05-10T05:06:20.292Z,96859.73
2019-05-10T05:08:55.275Z,96864.52
2019-05-10T05:11:29.687Z,96864.41
2019-05-10T05:14:03.933Z,96868.45
2019-05-10T05:16:38.144Z,96864.41
2019-05-10T05:19:13.533Z,96875.53
2019-05-10T05:21:47.929Z,96875.53
2019-05-10T05:24:23.179Z,96874.25
2019-05-10T05:26:58.268Z,96886.13
2019-05-10T05:29:32.605Z,96878.19
2019-05-10T05:32:07.263Z,96890.55
2019-05-10T05:34:42.144Z,96893.06
2019-05-10T05:37:16.904Z,96894.71
2019-05-10T05:39:51.366Z,96903.80
2019-05-10T05:42:27.862Z,96904.02
2019-05-10T05:45:00.854Z,96900.39
2019-05-10T05:47:37.598Z,96900.39
2019-05-10T05:50:10.657Z,96919.56
2019-05-10T05:52:45.278Z,96922.34
2019-05-10T05:55:22.926Z,96921.58
2019-05-10T05:57:59.179Z,96930.92
2019-05-10T06:00:37.649Z,96930.92
2019-05-10T06:03:09.287Z,96927.13
2019-05-10T06:05:43.735Z,96943.10
2019-05-10T06:08:22.977Z,96943.88
2019-05-10T06:10:57.947Z,96943.88
2019-05-10T06:13:32.238Z,96942.13
2019-05-10T06:16:12.761Z,96942.13
2019-05-10T06:18:47.247Z,96949.81
2019-05-10T06:21:25.088Z,96954.45
2019-05-10T06:23:59.239Z,96954.45
2019-05-10T06:26:32.284Z,96956.45
2019-05-10T06:29:16.419Z,96963.16
2019-05-10T06:31:42.049Z,96960.61
2019-05-10T06:34:16.676Z,96967.70
2019-05-10T06:36:51.795Z,96967.70
2019-05-10T06:39:26.405Z,96976.03
2019-05-10T06:42:01.223Z,96984.22
2019-05-10T06:44:35.877Z,96985.23
2019-05-10T06:47:11.394Z,96991.91
2019-05-10T06:49:50.752Z,96989.13
2019-05-10T06:52:27.572Z,97000.84
2019-05-10T06:54:58.816Z,96997.38
2019-05-10T06:57:32.053Z,97002.33
2019-05-10T07:00:08.081Z,97000.68
2019-05-10T07:02:42.759Z,97000.68
2019-05-10T07:05:17.273Z,96996.80
2019-05-10T07:07:51.719Z,96998.33
2019-05-10T07:10:25.380Z,96987.22
2019-05-10T07:13:03.610Z,96993.81
2019-05-10T07:15:41.987Z,96994.53
2019-05-10T07:18:16.866Z,96986.16
2019-05-10T07:20:49.269Z,96987.62
2019-05-10T07:23:24.104Z,96992.65
2019-05-10T07:25:58.940Z,96992.33
2019-05-10T07:28:33.941Z,96986.03
2019-05-10T07:31:08.985Z,96986.03
2019-05-10T07:33:43.270Z,96988.00
2019-05-10T07:36:20.873Z,96993.23
2019-05-10T07:38:54.125Z,96997.06
2019-05-10T07:41:29.285Z,96992.54
2019-05-10T07:44:07.715Z,96991.85
2019-05-10T07:46:46.415Z,96998.48
2019-05-10T07:49:17.944Z,96990.99
2019-05-10T07:51:52.385Z,96990.99
2019-05-10T07:54:28.203Z,96999.23
2019-05-10T07:57:02.729Z,96999.27
2019-05-10T07:59:50.189Z,97007.86
2019-05-10T08:02:14.934Z,97012.47
2019-05-10T08:04:53.030Z,97000.95
2019-05-10T08:07:26.272Z,97000.95
2019-05-10T08:10:04.463Z,97010.58
2019-05-10T08:12:41.429Z,96997.02
2019-05-10T08:15:13.364Z,96997.45
2019-05-10T08:17:50.698Z,97007.44
2019-05-10T08:20:38.241Z,96999.36
2019-05-10T08:23:02.696Z,96996.78
2019-05-10T08:25:40.974Z,97005.41
2019-05-10T08:28:15.284Z,96999.80
2019-05-10T08:30:53.458Z,97002.70
2019-05-10T08:33:26.409Z,96995.08
2019-05-10T08:36:04.951Z,97000.50
2019-05-10T08:38:39.594Z,97011.05
2019-05-10T08:41:17.998Z,97000.43
2019-05-10T08:43:52.400Z,97012.42
2019-05-10T08:46:34.975Z,97017.47
2019-05-10T08:49:02.324Z,97019.14
2019-05-10T08:51:43.753Z,97023.16
2019-05-10T08:54:13.279Z,97024.66
2019-05-10T08:56:52.978Z,97037.00
2019-05-10T08:59:26.687Z,97032.47
2019-05-10T09:02:02.107Z,97040.45
2019-05-10T09:04:42.825Z,97040.45
2019-05-10T09:07:13.327Z,97053.27
2019-05-10T09:09:50.088Z,97052.83
2019-05-10T09:12:24.280Z,97044.45
2019-05-10T09:15:06.570Z,97035.91
2019-05-10T09:17:35.696Z,97035.42
2019-05-10T09:20:20.170Z,97028.56
2019-05-10T09:22:47.331Z,97036.89
2019-05-10T09:25:29.224Z,97031.31
2019-05-10T09:28:02.477Z,97042.16
2019-05-10T09:30:52.209Z,97050.59
2019-05-10T09:33:14.238Z,97062.44
2019-05-10T09:35:52.331Z,97054.34
2019-05-10T09:38:28.724Z,97082.47
2019-05-10T09:41:02.574Z,97082.47
2019-05-10T09:43:40.488Z,97071.19
2019-05-10T09:46:14.156Z,97088.32
2019-05-10T09:48:54.676Z,97088.32
2019-05-10T09:51:30.146Z,97106.81
2019-05-10T09:54:01.897Z,97088.08
2019-05-10T09:56:39.647Z,97082.11
2019-05-10T09:59:12.426Z,97088.48
2019-05-10T10:01:48.452Z,97087.97
2019-05-10T10:04:23.285Z,97089.86
2019-05-10T10:06:58.262Z,97099.67
2019-05-10T10:09:42.004Z,97100.99
2019-05-10T10:12:09.055Z,97101.45
2019-05-10T10:14:43.493Z,97094.03
2019-05-10T10:17:20.525Z,97116.53
2019-05-10T10:19:54.294Z,97111.30
2019-05-10T10:22:29.116Z,97104.30
2019-05-10T10:25:04.101Z,97105.72
2019-05-10T10:27:39.642Z,97106.13
2019-05-10T10:30:21.202Z,97099.10
2019-05-10T10:32:51.398Z,97097.97
2019-05-10T10:35:29.389Z,97104.20
2019-05-10T10:38:03.473Z,97114.72
2019-05-10T10:40:44.108Z,97105.72
2019-05-10T10:43:17.855Z,97105.72
2019-05-10T10:45:51.657Z,97112.95
2019-05-10T10:48:28.383Z,97113.09
2019-05-10T10:51:02.868Z,97113.23
2019-05-10T10:53:37.281Z,97113.23
2019-05-10T10:58:58.357Z,97122.91
2019-05-10T11:01:49.196Z,97114.23
2019-05-10T11:04:09.812Z,97105.70
2019-05-10T11:06:44.450Z,97125.55
2019-05-10T11:09:20.671Z,97130.47
2019-05-10T11:11:55.457Z,97126.34
2019-05-10T11:14:31.960Z,97122.86
2019-05-10T11:17:06.707Z,97129.53
2019-05-10T11:19:41.810Z,97138.48
2019-05-10T11:22:16.297Z,97143.95
2019-05-10T11:24:59.531Z,97141.58
2019-05-10T11:27:25.771Z,97136.53
2019-05-10T11:30:00.889Z,97146.20
2019-05-10T11:32:36.938Z,97143.95
2019-05-10T11:35:17.438Z,97141.13
2019-05-10T11:37:50.681Z,97141.13
2019-05-10T11:40:30.661Z,97149.11
2019-05-10T11:43:01.517Z,97133.58
2019-05-10T11:45:36.792Z,97133.58
2019-05-10T11:48:10.875Z,97131.11
2019-05-10T11:50:45.342Z,97131.61
2019-05-10T11:53:23.585Z,97147.56
2019-05-10T11:55:56.275Z,97141.16
2019-05-10T11:58:31.214Z,97143.05
2019-05-10T12:01:14.780Z,97160.04
2019-05-10T12:03:42.620Z,97157.66
2019-05-10T12:06:15.808Z,97152.20
2019-05-10T12:08:56.906Z,97161.84
2019-05-10T12:11:33.150Z,97155.10
2019-05-10T12:14:03.284Z,97151.75
2019-05-10T12:16:37.962Z,97157.28
2019-05-10T12:19:19.864Z,97158.70
2019-05-10T12:21:48.368Z,97151.69
2019-05-10T12:24:39.003Z,97147.95
2019-05-10T12:27:17.461Z,97169.76
2019-05-10T12:29:36.274Z,97169.76
2019-05-10T12:32:11.130Z,97173.00
2019-05-10T12:34:50.446Z,97179.61
2019-05-10T12:37:22.277Z,97179.61
2019-05-10T12:40:06.175Z,97186.23
2019-05-10T12:42:31.862Z,97193.94
2019-05-10T12:45:05.252Z,97192.89
2019-05-10T12:47:41.454Z,97193.22
2019-05-10T12:50:16.773Z,97186.18
2019-05-10T12:53:02.889Z,97192.30
2019-05-10T12:55:26.094Z,97215.27
2019-05-10T12:58:00.942Z,97205.73
2019-05-10T13:00:35.718Z,97205.34
2019-05-10T13:03:12.704Z,97205.34
2019-05-10T13:05:52.674Z,97200.31
2019-05-10T13:08:21.516Z,97195.41
2019-05-10T13:10:56.254Z,97200.36
2019-05-10T13:13:30.884Z,97207.52
2019-05-10T13:16:09.497Z,97207.52
2019-05-10T13:18:50.260Z,97212.29
2019-05-10T13:21:20.921Z,97208.58
2019-05-10T13:23:53.764Z,97213.53
2019-05-10T13:26:29.285Z,97213.53
2019-05-10T13:29:08.128Z,97216.02
2019-05-10T13:31:42.882Z,97218.59
2019-05-10T13:34:15.314Z,97224.38
2019-05-10T13:36:49.951Z,97225.15
2019-05-10T13:39:27.394Z,97236.39
2019-05-10T13:42:03.261Z,97236.39
2019-05-10T13:44:42.924Z,97243.61
2019-05-10T13:47:14.277Z,97243.61
2019-05-10T13:49:49.416Z,97243.19
2019-05-10T13:52:29.778Z,97239.47
2019-05-10T13:55:00.695Z,97245.84
2019-05-10T13:57:35.286Z,97239.28
2019-05-10T14:00:10.451Z,97240.58
2019-05-10T14:02:45.102Z,97236.71
2019-05-10T14:05:22.298Z,97239.03
2019-05-10T14:07:57.284Z,97244.09
2019-05-10T14:10:32.303Z,97254.09
2019-05-10T14:13:07.331Z,97256.66
2019-05-10T14:15:42.276Z,97256.66
2019-05-10T14:18:17.286Z,97252.28
2019-05-10T14:20:52.302Z,97260.06
2019-05-10T14:23:28.973Z,97262.13
2019-05-10T14:26:09.162Z,97259.15
2019-05-10T14:28:40.696Z,97259.15
2019-05-10T14:31:14.137Z,97260.55
2019-05-10T14:34:14.134Z,97261.85
2019-05-10T14:36:25.279Z,97261.85
2019-05-10T14:39:00.272Z,97262.43
2019-05-10T14:41:35.264Z,97271.84
2019-05-10T14:44:10.273Z,97280.13
2019-05-10T14:46:45.270Z,97290.28
2019-05-10T14:49:19.889Z,97309.31
2019-05-10T14:51:59.596Z,97313.03
2019-05-10T14:54:43.377Z,97299.00
2019-05-10T14:57:06.277Z,97295.69
2019-05-10T14:59:40.818Z,97295.69
2019-05-10T15:02:16.855Z,97296.54
2019-05-10T15:04:52.003Z,97315.95
2019-05-10T15:07:26.942Z,97307.65
2019-05-10T15:10:02.365Z,97307.65
2019-05-10T15:12:35.269Z,97308.92
2019-05-10T15:15:10.374Z,97289.20
2019-05-10T15:17:45.288Z,97281.34
2019-05-10T15:20:20.517Z,97289.13
2019-05-10T15:22:55.311Z,97289.13
2019-05-10T15:25:30.290Z,97284.83
2019-05-10T15:28:05.288Z,97289.16
2019-05-10T15:30:45.841Z,97289.95
2019-05-10T15:33:16.716Z,97289.97
2019-05-10T15:35:51.736Z,97290.30
2019-05-10T15:38:26.285Z,97286.02
2019-05-10T15:41:01.117Z,97286.02
2019-05-10T15:43:35.947Z,97292.81
2019-05-10T15:46:10.507Z,97283.30
2019-05-10T15:48:45.335Z,97285.20
2019-05-10T15:51:34.121Z,97294.35
2019-05-10T15:56:35.639Z,97296.30
2019-05-10T15:59:12.712Z,97285.28
2019-05-10T15:59:23.798Z,97296.30
2019-05-10T16:01:46.001Z,97285.28
2019-05-10T16:04:21.282Z,97293.48
2019-05-10T16:06:56.236Z,97299.95
2019-05-10T16:09:31.237Z,97299.42
2019-05-10T16:12:08.709Z,97297.77
2019-05-10T16:14:45.438Z,97296.36
2019-05-10T16:17:23.561Z,97304.09
2019-05-10T16:19:59.728Z,97297.81
2019-05-10T16:22:32.373Z,97298.62
2019-05-10T16:25:07.381Z,97296.44
2019-05-10T16:27:44.922Z,97296.91
2019-05-10T16:30:20.311Z,97301.19
2019-05-10T16:32:55.288Z,97306.27
2019-05-10T16:35:38.352Z,97308.73
2019-05-10T16:38:04.819Z,97308.73
2019-05-10T16:40:39.286Z,97308.20
2019-05-10T16:43:18.953Z,97306.65
2019-05-10T16:45:50.387Z,97311.30
2019-05-10T16:48:28.276Z,97305.17
2019-05-10T16:51:03.909Z,97315.98
2019-05-10T16:53:37.720Z,97312.03
2019-05-10T16:56:13.253Z,97313.89
2019-05-10T16:58:53.269Z,97321.39
2019-05-10T17:01:27.484Z,97321.39
2019-05-10T17:04:01.980Z,97327.63
2019-05-10T17:06:40.345Z,97329.53
2019-05-10T17:09:18.182Z,97330.08
2019-05-10T17:11:50.285Z,97334.98
2019-05-10T17:14:24.780Z,97331.01
2019-05-10T17:17:00.149Z,97333.08
2019-05-10T17:19:36.126Z,97325.78
2019-05-10T17:22:12.260Z,97336.59
2019-05-10T17:24:46.700Z,97334.63
2019-05-10T17:27:21.313Z,97342.62
2019-05-10T17:29:55.746Z,97334.61
2019-05-10T17:32:28.769Z,97334.61
2019-05-10T17:35:04.701Z,97342.20
2019-05-10T17:37:39.963Z,97337.05
2019-05-10T17:40:14.956Z,97339.78
2019-05-10T17:42:51.630Z,97339.95
2019-05-10T17:45:28.468Z,97344.45
2019-05-10T17:48:08.062Z,97344.45
2019-05-10T17:50:39.338Z,97343.65
2019-05-10T17:53:14.921Z,97347.30
2019-05-10T17:55:55.732Z,97348.58
2019-05-10T17:58:27.771Z,97356.95
2019-05-10T18:01:03.254Z,97353.57
2019-05-10T18:03:38.260Z,97348.41
2019-05-10T18:06:23.526Z,97357.25
2019-05-10T18:08:48.951Z,97356.00
2019-05-10T18:11:23.915Z,97356.00
2019-05-10T18:13:58.567Z,97359.42
2019-05-10T18:16:33.268Z,97362.75
2019-05-10T18:19:07.942Z,97365.55
2019-05-10T18:24:01.333Z,97365.64
2019-05-10T18:26:39.581Z,97375.34
2019-05-10T18:29:11.305Z,97377.09
2019-05-10T18:31:54.485Z,97376.42
2019-05-10T18:34:26.403Z,97376.42
2019-05-10T18:36:56.871Z,97386.98
2019-05-10T18:39:33.587Z,97381.53
2019-05-10T18:42:11.291Z,97388.25
2019-05-10T18:44:51.380Z,97387.72
2019-05-10T18:47:22.074Z,97384.70
2019-05-10T18:49:56.418Z,97389.30
2019-05-10T18:52:31.299Z,97389.30
2019-05-10T18:55:05.944Z,97390.47
2019-05-10T18:57:40.290Z,97396.09
2019-05-10T19:00:17.517Z,97396.09
2019-05-10T19:02:55.381Z,97395.35
2019-05-10T19:05:33.174Z,97401.48
2019-05-10T19:08:06.799Z,97401.25
2019-05-10T19:10:40.362Z,97401.25
2019-05-10T19:13:15.984Z,97403.16
2019-05-10T19:15:52.859Z,97412.04
2019-05-10T19:18:27.147Z,97419.54
2019-05-10T19:21:02.250Z,97419.17
2019-05-10T19:23:37.608Z,97419.17
2019-05-10T19:26:13.478Z,97428.17
2019-05-10T19:28:48.660Z,97425.75
2019-05-10T19:31:24.895Z,97430.70
2019-05-10T19:34:00.284Z,97430.70
2019-05-10T19:36:36.295Z,97423.34
2019-05-10T19:39:12.121Z,97428.40
2019-05-10T19:41:46.954Z,97435.62
2019-05-10T19:44:21.748Z,97433.31
2019-05-10T19:46:56.297Z,97433.31
2019-05-10T19:49:31.118Z,97439.25
2019-05-10T19:52:05.746Z,97445.70
2019-05-10T19:54:38.696Z,97442.34
2019-05-10T19:57:21.741Z,97449.19
2019-05-10T19:59:55.162Z,97453.70
2019-05-10T20:02:31.722Z,97459.62
2019-05-10T20:05:06.688Z,97456.47
2019-05-10T20:07:45.939Z,97456.97
2019-05-10T20:10:17.276Z,97458.36
2019-05-10T20:12:51.665Z,97459.86
2019-05-10T20:15:25.945Z,97453.65
2019-05-10T20:18:00.452Z,97453.65
2019-05-10T20:20:35.267Z,97459.84
2019-05-10T20:23:09.742Z,97461.59
2019-05-10T20:25:44.136Z,97468.33
2019-05-10T20:28:18.876Z,97468.68
2019-05-10T20:30:54.296Z,97469.05
2019-05-10T20:33:29.109Z,97471.30
2019-05-10T20:36:04.236Z,97470.92
2019-05-10T20:38:39.244Z,97470.92
2019-05-10T20:41:13.946Z,97476.51
2019-05-10T20:43:47.121Z,97481.47
2019-05-10T20:46:37.283Z,97486.42
2019-05-10T20:49:14.288Z,97487.91
2019-05-10T20:51:49.097Z,97489.08
2019-05-10T20:54:24.293Z,97502.23
2019-05-10T20:56:59.300Z,97513.22
2019-05-10T20:59:34.301Z,97523.95
2019-05-10T21:02:09.353Z,97521.59
2019-05-10T21:04:44.322Z,97519.61
2019-05-10T21:07:19.281Z,97502.59
2019-05-10T21:09:54.292Z,97486.05
2019-05-10T21:12:28.947Z,97487.95
2019-05-10T21:15:02.110Z,97486.70
2019-05-10T21:17:36.790Z,97490.83
2019-05-10T21:20:11.054Z,97490.83
2019-05-10T21:22:45.308Z,97488.51
2019-05-10T21:25:19.769Z,97488.51
2019-05-10T21:27:52.709Z,97491.74
2019-05-10T21:30:26.945Z,97493.76
2019-05-10T21:33:00.033Z,97506.09
2019-05-10T21:35:32.850Z,97503.59
2019-05-10T21:38:08.282Z,97500.84
2019-05-10T21:40:42.662Z,97490.45
2019-05-10T21:43:17.286Z,97483.51
2019-05-10T21:45:51.731Z,97476.19
2019-05-10T21:48:26.306Z,97477.22
2019-05-10T21:51:00.834Z,97477.50
2019-05-10T21:53:34.345Z,97470.58
2019-05-10T21:56:09.705Z,97474.65
2019-05-10T21:58:44.294Z,97470.48
2019-05-10T22:01:19.256Z,97478.68
2019-05-10T22:03:53.878Z,97478.05
2019-05-10T22:06:28.282Z,97480.70
2019-05-10T22:09:02.890Z,97483.09
2019-05-10T22:11:36.135Z,97484.34
2019-05-10T22:14:09.092Z,97485.36
2019-05-10T22:16:43.964Z,97487.64
2019-05-10T22:19:19.305Z,97495.19
2019-05-10T22:21:55.457Z,97495.19
2019-05-10T22:24:30.829Z,97489.34
2019-05-10T22:27:04.390Z,97493.52
2019-05-10T22:29:40.363Z,97492.65
2019-05-10T22:32:15.302Z,97502.86
2019-05-10T22:34:49.796Z,97502.96
2019-05-10T22:37:24.292Z,97502.02
2019-05-10T22:39:58.953Z,97503.50
2019-05-10T22:42:32.272Z,97500.13
2019-05-10T22:45:07.954Z,97526.70
2019-05-10T22:47:42.317Z,97526.70
2019-05-10T22:50:17.330Z,97527.70
2019-05-10T22:52:51.948Z,97522.35
2019-05-10T22:55:25.067Z,97519.59
2019-05-10T22:57:59.500Z,97527.39
2019-05-10T23:00:34.281Z,97534.09
2019-05-10T23:03:09.125Z,97528.34
2019-05-10T23:05:43.827Z,97529.40
2019-05-10T23:08:16.868Z,97529.40
2019-05-10T23:10:51.321Z,97524.70
2019-05-10T23:13:29.287Z,97523.31
2019-05-10T23:16:09.319Z,97521.92
2019-05-10T23:18:44.285Z,97520.42
2019-05-10T23:21:19.044Z,97516.06
2019-05-10T23:23:53.754Z,97491.42
2019-05-10T23:26:27.305Z,97491.42
2019-05-10T23:29:01.562Z,97492.95
2019-05-10T23:31:35.946Z,97492.95
2019-05-10T23:34:10.274Z,97497.68
2019-05-10T23:36:44.763Z,97498.98
2019-05-10T23:39:17.797Z,97511.41
2019-05-10T23:41:51.902Z,97514.95
2019-05-10T23:44:24.875Z,97512.03
2019-05-10T23:46:57.675Z,97513.22
2019-05-10T23:49:31.940Z,97513.22
2019-05-10T23:52:04.965Z,97506.77
2019-05-10T23:54:39.288Z,97497.54
2019-05-10T23:57:13.690Z,97497.54
2019-05-10T23:59:47.950Z,97490.43
